Airfield :
LOGIN :

Register | Disclaimer

   EN    FR    IT 

 










Legend :    VFR   Marginal VFR   IFR   Intensive IFR   Very Intensive IFR
Visi :
Ceiling :
>= 8 km
>= 3000ft
5 to 8 km
1000 to 3000 ft
1500m to 5 km
500 to 1000 ft
800 to 1500m
200 to 500 ft
< 800m
< 200 ft
Symbols :   Thunderstorms  Fog  Heavy snow  Heavy precipitations  Wind > 20 kt
SIGMETs :     Misc.  Thunderstorms  Icing  Turbulence  Mountain Waves  Volcanic Ashes







- Airport Elevation : 12 ft
- IATA code : NCE
- Download approach charts


LFMN - Nice

CURRENT METAR :
  • 182100Z 33008KT 9999 FEW023 11/07 Q1017 NOSIG

EXPIRED METARs :
  • 182030Z 33006KT 9999 FEW021 11/08 Q1017 NOSIG
  • 182000Z 33007KT 9999 FEW021 12/08 Q1017 NOSIG
  • 181930Z 33007KT 9999 SCT021 12/08 Q1017 NOSIG
  • 181900Z 33007KT 9999 BKN021 12/09 Q1017 NOSIG
  • 181830Z 33006KT 9999 SCT020 12/09 Q1017 NOSIG
  • 181800Z 33005KT 9999 FEW020 12/09 Q1017 NOSIG

TAF TAF LFMN
Valid from the 18 at 21:00 until the 20 at 03:00 UTC


182000Z 1821/2003 35010KT 9999 FEW020
PROB30
TEMPO 1821/1824 BKN014
PROB30
TEMPO 1901/1905 26010KT
BECMG 1908/1910 09010KT
BECMG 1917/1919 36010KT
ATIS : +33 4 93 17 21 16
No reported NOTAMs for that airfield.



MET'MAP, your aeronautical weather chart ! - Copyright ORBIFLY December 2007 - Disclaimer

ORBIFLY MET'MAP TEAM :

Programming & Development : Alexandra Zaïnal
Concept & Development : Baudouin d'Aumeries
Co-Development & Prog : Marc-Olivier Méhu
Technical & hardware support : Manuel Goepfert

Contact : metmap@orbifly.com




SOURCES & CREDITS :

   NOAA